sensor_id;sensor_type;location;lat;lon;timestamp;P1;durP1;ratioP1;P2;durP2;ratioP2
61635;SDS011;59438;45.014;39.006;2023-02-21T00:01:24;6.05;;;2.40;;
61635;SDS011;59438;45.014;39.006;2023-02-21T00:03:50;5.40;;;1.90;;
61635;SDS011;59438;45.014;39.006;2023-02-21T00:06:18;5.38;;;1.80;;
61635;SDS011;59438;45.014;39.006;2023-02-21T00:08:45;3.00;;;1.90;;
61635;SDS011;59438;45.014;39.006;2023-02-21T00:11:11;4.55;;;1.80;;
61635;SDS011;59438;45.014;39.006;2023-02-21T00:13:37;7.07;;;2.20;;
61635;SDS011;59438;45.014;39.006;2023-02-21T00:16:04;2.60;;;1.60;;
61635;SDS011;59438;45.014;39.006;2023-02-21T00:18:32;5.22;;;2.00;;
61635;SDS011;59438;45.014;39.006;2023-02-21T00:20:59;2.88;;;1.70;;
61635;SDS011;59438;45.014;39.006;2023-02-21T00:23:27;2.88;;;1.70;;
61635;SDS011;59438;45.014;39.006;2023-02-21T00:25:53;6.18;;;1.95;;
61635;SDS011;59438;45.014;39.006;2023-02-21T00:28:20;2.75;;;1.80;;
61635;SDS011;59438;45.014;39.006;2023-02-21T00:30:46;2.45;;;1.58;;
61635;SDS011;59438;45.014;39.006;2023-02-21T00:33:12;1.92;;;1.48;;
61635;SDS011;59438;45.014;39.006;2023-02-21T00:35:39;2.60;;;1.70;;
61635;SDS011;59438;45.014;39.006;2023-02-21T00:38:05;2.28;;;1.70;;
61635;SDS011;59438;45.014;39.006;2023-02-21T00:40:33;1.80;;;1.50;;
61635;SDS011;59438;45.014;39.006;2023-02-21T00:43:00;2.15;;;1.45;;
61635;SDS011;59438;45.014;39.006;2023-02-21T00:45:26;4.22;;;1.60;;
61635;SDS011;59438;45.014;39.006;2023-02-21T00:47:53;2.95;;;1.80;;
61635;SDS011;59438;45.014;39.006;2023-02-21T00:50:19;2.47;;;1.70;;
61635;SDS011;59438;45.014;39.006;2023-02-21T00:52:45;1.95;;;1.60;;
61635;SDS011;59438;45.014;39.006;2023-02-21T00:55:12;3.25;;;1.40;;
61635;SDS011;59438;45.014;39.006;2023-02-21T00:57:40;4.57;;;1.60;;
61635;SDS011;59438;45.014;39.006;2023-02-21T01:00:07;3.17;;;1.65;;
61635;SDS011;59438;45.014;39.006;2023-02-21T01:02:38;4.05;;;1.75;;
61635;SDS011;59438;45.014;39.006;2023-02-21T01:05:06;4.53;;;1.63;;
61635;SDS011;59438;45.014;39.006;2023-02-21T01:07:33;3.80;;;1.80;;
61635;SDS011;59438;45.014;39.006;2023-02-21T01:09:59;2.78;;;1.60;;
61635;SDS011;59438;45.014;39.006;2023-02-21T01:12:26;2.50;;;1.73;;
61635;SDS011;59438;45.014;39.006;2023-02-21T01:14:53;3.90;;;1.60;;
61635;SDS011;59438;45.014;39.006;2023-02-21T01:17:20;4.90;;;1.63;;
61635;SDS011;59438;45.014;39.006;2023-02-21T01:19:46;2.90;;;1.50;;
61635;SDS011;59438;45.014;39.006;2023-02-21T01:22:12;5.10;;;1.52;;
61635;SDS011;59438;45.014;39.006;2023-02-21T01:24:39;3.83;;;1.42;;
61635;SDS011;59438;45.014;39.006;2023-02-21T01:27:05;2.90;;;1.50;;
61635;SDS011;59438;45.014;39.006;2023-02-21T01:29:32;2.65;;;1.60;;
61635;SDS011;59438;45.014;39.006;2023-02-21T01:32:00;4.88;;;1.60;;
61635;SDS011;59438;45.014;39.006;2023-02-21T01:34:26;3.00;;;1.55;;
61635;SDS011;59438;45.014;39.006;2023-02-21T01:36:53;2.60;;;1.55;;
61635;SDS011;59438;45.014;39.006;2023-02-21T01:39:19;4.50;;;1.42;;
61635;SDS011;59438;45.014;39.006;2023-02-21T01:41:45;3.00;;;1.70;;
61635;SDS011;59438;45.014;39.006;2023-02-21T01:44:27;2.88;;;1.35;;
61635;SDS011;59438;45.014;39.006;2023-02-21T01:47:02;5.00;;;1.65;;
61635;SDS011;59438;45.014;39.006;2023-02-21T01:49:29;2.63;;;1.20;;
61635;SDS011;59438;45.014;39.006;2023-02-21T01:51:56;2.20;;;1.58;;
61635;SDS011;59438;45.014;39.006;2023-02-21T01:54:26;1.90;;;1.40;;
61635;SDS011;59438;45.014;39.006;2023-02-21T01:56:55;3.75;;;1.60;;
61635;SDS011;59438;45.014;39.006;2023-02-21T01:59:24;2.85;;;1.35;;
61635;SDS011;59438;45.014;39.006;2023-02-21T02:01:52;3.10;;;1.70;;
61635;SDS011;59438;45.014;39.006;2023-02-21T02:04:24;3.08;;;1.52;;
61635;SDS011;59438;45.014;39.006;2023-02-21T02:06:50;2.55;;;1.45;;
61635;SDS011;59438;45.014;39.006;2023-02-21T02:09:18;1.77;;;1.40;;
61635;SDS011;59438;45.014;39.006;2023-02-21T02:11:59;3.70;;;1.50;;
61635;SDS011;59438;45.014;39.006;2023-02-21T02:14:41;1.73;;;1.40;;
61635;SDS011;59438;45.014;39.006;2023-02-21T02:17:18;2.05;;;1.50;;
61635;SDS011;59438;45.014;39.006;2023-02-21T02:20:02;3.50;;;1.35;;
61635;SDS011;59438;45.014;39.006;2023-02-21T02:23:03;3.65;;;1.70;;
61635;SDS011;59438;45.014;39.006;2023-02-21T02:25:54;2.70;;;1.40;;
61635;SDS011;59438;45.014;39.006;2023-02-21T02:28:33;2.67;;;1.48;;
61635;SDS011;59438;45.014;39.006;2023-02-21T02:31:20;4.18;;;1.50;;
61635;SDS011;59438;45.014;39.006;2023-02-21T02:37:13;2.70;;;1.33;;
61635;SDS011;59438;45.014;39.006;2023-02-21T02:39:47;6.53;;;1.80;;
61635;SDS011;59438;45.014;39.006;2023-02-21T02:42:24;3.15;;;1.60;;
61635;SDS011;59438;45.014;39.006;2023-02-21T02:45:00;4.45;;;1.52;;
61635;SDS011;59438;45.014;39.006;2023-02-21T02:47:33;3.92;;;1.83;;
61635;SDS011;59438;45.014;39.006;2023-02-21T02:50:04;2.53;;;1.52;;
61635;SDS011;59438;45.014;39.006;2023-02-21T02:52:33;1.50;;;1.30;;
61635;SDS011;59438;45.014;39.006;2023-02-21T02:55:00;6.35;;;1.65;;
61635;SDS011;59438;45.014;39.006;2023-02-21T02:57:28;3.70;;;1.70;;
61635;SDS011;59438;45.014;39.006;2023-02-21T02:59:57;3.17;;;1.83;;
61635;SDS011;59438;45.014;39.006;2023-02-21T03:02:28;4.78;;;2.17;;
61635;SDS011;59438;45.014;39.006;2023-02-21T03:05:12;3.13;;;1.65;;
61635;SDS011;59438;45.014;39.006;2023-02-21T03:07:57;5.15;;;1.80;;
61635;SDS011;59438;45.014;39.006;2023-02-21T03:10:33;4.57;;;1.83;;
61635;SDS011;59438;45.014;39.006;2023-02-21T03:13:06;3.88;;;1.50;;
61635;SDS011;59438;45.014;39.006;2023-02-21T03:15:39;5.88;;;1.55;;
61635;SDS011;59438;45.014;39.006;2023-02-21T03:18:11;4.68;;;1.55;;
61635;SDS011;59438;45.014;39.006;2023-02-21T03:23:10;2.78;;;1.45;;
61635;SDS011;59438;45.014;39.006;2023-02-21T03:25:39;3.95;;;1.65;;
61635;SDS011;59438;45.014;39.006;2023-02-21T03:28:07;5.18;;;1.80;;
61635;SDS011;59438;45.014;39.006;2023-02-21T03:30:34;5.93;;;1.75;;
61635;SDS011;59438;45.014;39.006;2023-02-21T03:33:00;5.05;;;1.55;;
61635;SDS011;59438;45.014;39.006;2023-02-21T03:35:27;3.72;;;1.40;;
61635;SDS011;59438;45.014;39.006;2023-02-21T03:40:24;4.30;;;1.50;;
61635;SDS011;59438;45.014;39.006;2023-02-21T03:42:53;5.97;;;1.60;;
61635;SDS011;59438;45.014;39.006;2023-02-21T03:45:20;2.97;;;1.52;;
61635;SDS011;59438;45.014;39.006;2023-02-21T03:47:47;5.13;;;1.60;;
61635;SDS011;59438;45.014;39.006;2023-02-21T03:50:13;5.45;;;1.70;;
61635;SDS011;59438;45.014;39.006;2023-02-21T03:52:40;4.05;;;1.73;;
61635;SDS011;59438;45.014;39.006;2023-02-21T03:55:07;3.20;;;1.48;;
61635;SDS011;59438;45.014;39.006;2023-02-21T03:57:35;4.20;;;1.55;;
61635;SDS011;59438;45.014;39.006;2023-02-21T04:00:02;4.68;;;1.50;;
61635;SDS011;59438;45.014;39.006;2023-02-21T04:02:29;5.95;;;1.50;;
61635;SDS011;59438;45.014;39.006;2023-02-21T04:04:55;3.22;;;1.55;;
61635;SDS011;59438;45.014;39.006;2023-02-21T04:07:21;5.47;;;1.75;;
61635;SDS011;59438;45.014;39.006;2023-02-21T04:09:48;2.78;;;1.60;;
61635;SDS011;59438;45.014;39.006;2023-02-21T04:12:14;2.85;;;1.65;;
61635;SDS011;59438;45.014;39.006;2023-02-21T04:14:43;2.38;;;1.52;;
61635;SDS011;59438;45.014;39.006;2023-02-21T04:17:09;3.20;;;1.30;;
61635;SDS011;59438;45.014;39.006;2023-02-21T04:19:35;1.88;;;1.10;;
61635;SDS011;59438;45.014;39.006;2023-02-21T04:22:02;2.08;;;1.55;;
61635;SDS011;59438;45.014;39.006;2023-02-21T04:24:28;2.63;;;1.48;;
61635;SDS011;59438;45.014;39.006;2023-02-21T04:26:54;4.57;;;1.73;;
61635;SDS011;59438;45.014;39.006;2023-02-21T04:29:21;2.05;;;1.33;;
61635;SDS011;59438;45.014;39.006;2023-02-21T04:31:49;1.95;;;1.30;;
61635;SDS011;59438;45.014;39.006;2023-02-21T04:34:15;1.67;;;1.40;;
61635;SDS011;59438;45.014;39.006;2023-02-21T04:36:42;2.03;;;1.40;;
61635;SDS011;59438;45.014;39.006;2023-02-21T04:39:08;1.48;;;1.10;;
61635;SDS011;59438;45.014;39.006;2023-02-21T04:41:35;2.42;;;1.70;;
61635;SDS011;59438;45.014;39.006;2023-02-21T04:44:01;1.85;;;1.40;;
61635;SDS011;59438;45.014;39.006;2023-02-21T04:46:28;1.90;;;1.15;;
61635;SDS011;59438;45.014;39.006;2023-02-21T04:48:55;3.38;;;1.60;;
61635;SDS011;59438;45.014;39.006;2023-02-21T04:51:22;3.95;;;2.33;;
61635;SDS011;59438;45.014;39.006;2023-02-21T04:53:50;3.10;;;1.73;;
61635;SDS011;59438;45.014;39.006;2023-02-21T04:56:17;3.47;;;2.00;;
61635;SDS011;59438;45.014;39.006;2023-02-21T04:58:45;4.07;;;2.30;;
61635;SDS011;59438;45.014;39.006;2023-02-21T05:01:12;6.03;;;3.47;;
61635;SDS011;59438;45.014;39.006;2023-02-21T05:03:38;4.43;;;2.60;;
61635;SDS011;59438;45.014;39.006;2023-02-21T05:06:06;4.68;;;2.55;;
61635;SDS011;59438;45.014;39.006;2023-02-21T05:08:33;3.17;;;2.17;;
61635;SDS011;59438;45.014;39.006;2023-02-21T05:11:00;5.07;;;2.88;;
61635;SDS011;59438;45.014;39.006;2023-02-21T05:13:27;7.85;;;4.10;;
61635;SDS011;59438;45.014;39.006;2023-02-21T05:15:53;6.15;;;3.97;;
61635;SDS011;59438;45.014;39.006;2023-02-21T05:18:20;5.93;;;3.10;;
61635;SDS011;59438;45.014;39.006;2023-02-21T05:20:46;6.28;;;3.10;;
61635;SDS011;59438;45.014;39.006;2023-02-21T05:23:14;4.20;;;2.00;;
61635;SDS011;59438;45.014;39.006;2023-02-21T05:25:41;6.22;;;3.10;;
61635;SDS011;59438;45.014;39.006;2023-02-21T05:28:07;6.32;;;3.03;;
61635;SDS011;59438;45.014;39.006;2023-02-21T05:30:34;6.40;;;3.85;;
61635;SDS011;59438;45.014;39.006;2023-02-21T05:33:00;3.17;;;2.00;;
61635;SDS011;59438;45.014;39.006;2023-02-21T05:35:27;4.13;;;2.60;;
61635;SDS011;59438;45.014;39.006;2023-02-21T05:37:53;3.47;;;2.20;;
61635;SDS011;59438;45.014;39.006;2023-02-21T05:40:21;2.60;;;1.70;;
61635;SDS011;59438;45.014;39.006;2023-02-21T05:42:47;5.80;;;1.80;;
61635;SDS011;59438;45.014;39.006;2023-02-21T05:45:13;3.97;;;1.55;;
61635;SDS011;59438;45.014;39.006;2023-02-21T05:47:40;5.53;;;1.80;;
61635;SDS011;59438;45.014;39.006;2023-02-21T05:50:06;5.50;;;1.55;;
61635;SDS011;59438;45.014;39.006;2023-02-21T05:52:33;7.50;;;2.40;;
61635;SDS011;59438;45.014;39.006;2023-02-21T05:54:59;7.45;;;2.50;;
61635;SDS011;59438;45.014;39.006;2023-02-21T05:57:27;6.00;;;2.08;;
61635;SDS011;59438;45.014;39.006;2023-02-21T05:59:53;6.13;;;1.80;;
61635;SDS011;59438;45.014;39.006;2023-02-21T06:02:20;5.75;;;1.85;;
61635;SDS011;59438;45.014;39.006;2023-02-21T06:04:46;3.15;;;1.20;;
61635;SDS011;59438;45.014;39.006;2023-02-21T06:07:12;5.63;;;1.50;;
61635;SDS011;59438;45.014;39.006;2023-02-21T06:09:39;5.80;;;1.30;;
61635;SDS011;59438;45.014;39.006;2023-02-21T06:12:05;3.80;;;1.50;;
61635;SDS011;59438;45.014;39.006;2023-02-21T06:14:33;2.45;;;1.52;;
61635;SDS011;59438;45.014;39.006;2023-02-21T06:17:00;4.72;;;2.20;;
61635;SDS011;59438;45.014;39.006;2023-02-21T06:19:26;4.47;;;1.60;;
61635;SDS011;59438;45.014;39.006;2023-02-21T06:21:52;4.72;;;1.60;;
61635;SDS011;59438;45.014;39.006;2023-02-21T06:24:19;3.90;;;1.70;;
61635;SDS011;59438;45.014;39.006;2023-02-21T06:26:45;6.32;;;1.67;;
61635;SDS011;59438;45.014;39.006;2023-02-21T06:29:12;5.28;;;1.80;;
61635;SDS011;59438;45.014;39.006;2023-02-21T06:31:40;2.75;;;1.50;;
61635;SDS011;59438;45.014;39.006;2023-02-21T06:34:06;5.32;;;1.73;;
61635;SDS011;59438;45.014;39.006;2023-02-21T06:36:33;10.63;;;1.77;;
61635;SDS011;59438;45.014;39.006;2023-02-21T06:38:59;5.65;;;1.80;;
61635;SDS011;59438;45.014;39.006;2023-02-21T06:41:26;2.45;;;1.63;;
61635;SDS011;59438;45.014;39.006;2023-02-21T06:43:54;4.50;;;1.88;;
61635;SDS011;59438;45.014;39.006;2023-02-21T06:46:22;2.75;;;1.45;;
61635;SDS011;59438;45.014;39.006;2023-02-21T06:48:51;6.75;;;1.70;;
61635;SDS011;59438;45.014;39.006;2023-02-21T06:51:18;7.75;;;1.60;;
61635;SDS011;59438;45.014;39.006;2023-02-21T06:53:47;3.13;;;1.60;;
61635;SDS011;59438;45.014;39.006;2023-02-21T06:56:15;6.97;;;2.00;;
61635;SDS011;59438;45.014;39.006;2023-02-21T06:58:41;5.30;;;2.00;;
61635;SDS011;59438;45.014;39.006;2023-02-21T07:01:07;3.63;;;1.35;;
61635;SDS011;59438;45.014;39.006;2023-02-21T07:03:37;6.25;;;2.15;;
61635;SDS011;59438;45.014;39.006;2023-02-21T07:06:05;4.93;;;1.40;;
61635;SDS011;59438;45.014;39.006;2023-02-21T07:08:32;4.07;;;1.90;;
61635;SDS011;59438;45.014;39.006;2023-02-21T07:10:58;2.30;;;1.33;;
61635;SDS011;59438;45.014;39.006;2023-02-21T07:13:25;3.28;;;1.75;;
61635;SDS011;59438;45.014;39.006;2023-02-21T07:15:51;6.93;;;2.53;;
61635;SDS011;59438;45.014;39.006;2023-02-21T07:18:17;1.90;;;1.30;;
61635;SDS011;59438;45.014;39.006;2023-02-21T07:20:44;4.20;;;2.20;;
61635;SDS011;59438;45.014;39.006;2023-02-21T07:23:11;11.15;;;2.58;;
61635;SDS011;59438;45.014;39.006;2023-02-21T07:25:38;4.88;;;2.00;;
61635;SDS011;59438;45.014;39.006;2023-02-21T07:28:04;5.43;;;2.22;;
61635;SDS011;59438;45.014;39.006;2023-02-21T07:30:30;2.83;;;1.63;;
61635;SDS011;59438;45.014;39.006;2023-02-21T07:32:57;4.03;;;1.48;;
61635;SDS011;59438;45.014;39.006;2023-02-21T07:35:23;1.65;;;1.10;;
61635;SDS011;59438;45.014;39.006;2023-02-21T07:37:50;3.15;;;2.05;;
61635;SDS011;59438;45.014;39.006;2023-02-21T07:40:17;4.15;;;1.80;;
61635;SDS011;59438;45.014;39.006;2023-02-21T07:42:44;3.15;;;1.90;;
61635;SDS011;59438;45.014;39.006;2023-02-21T07:45:10;3.20;;;1.50;;
61635;SDS011;59438;45.014;39.006;2023-02-21T07:47:37;4.85;;;1.92;;
61635;SDS011;59438;45.014;39.006;2023-02-21T07:50:03;6.88;;;2.25;;
61635;SDS011;59438;45.014;39.006;2023-02-21T07:52:30;6.05;;;1.70;;
61635;SDS011;59438;45.014;39.006;2023-02-21T07:54:56;3.20;;;1.50;;
61635;SDS011;59438;45.014;39.006;2023-02-21T07:57:25;3.72;;;1.50;;
61635;SDS011;59438;45.014;39.006;2023-02-21T07:59:51;5.22;;;2.40;;
61635;SDS011;59438;45.014;39.006;2023-02-21T08:02:17;7.10;;;2.95;;
61635;SDS011;59438;45.014;39.006;2023-02-21T08:04:44;5.15;;;2.72;;
61635;SDS011;59438;45.014;39.006;2023-02-21T08:07:14;3.35;;;1.65;;
61635;SDS011;59438;45.014;39.006;2023-02-21T08:09:41;6.75;;;2.50;;
61635;SDS011;59438;45.014;39.006;2023-02-21T08:12:07;2.63;;;1.15;;
61635;SDS011;59438;45.014;39.006;2023-02-21T08:14:35;5.28;;;1.25;;
61635;SDS011;59438;45.014;39.006;2023-02-21T08:17:01;3.60;;;2.00;;
61635;SDS011;59438;45.014;39.006;2023-02-21T08:19:28;4.25;;;1.40;;
61635;SDS011;59438;45.014;39.006;2023-02-21T08:21:54;3.00;;;1.40;;
61635;SDS011;59438;45.014;39.006;2023-02-21T08:24:20;2.42;;;1.33;;
61635;SDS011;59438;45.014;39.006;2023-02-21T08:26:47;7.60;;;1.40;;
61635;SDS011;59438;45.014;39.006;2023-02-21T08:29:13;1.80;;;1.30;;
61635;SDS011;59438;45.014;39.006;2023-02-21T08:31:41;1.80;;;1.15;;
61635;SDS011;59438;45.014;39.006;2023-02-21T08:34:08;2.75;;;1.10;;
61635;SDS011;59438;45.014;39.006;2023-02-21T08:36:36;4.65;;;1.90;;
61635;SDS011;59438;45.014;39.006;2023-02-21T08:39:04;2.53;;;1.60;;
61635;SDS011;59438;45.014;39.006;2023-02-21T08:41:35;3.42;;;1.65;;
61635;SDS011;59438;45.014;39.006;2023-02-21T08:44:02;5.70;;;1.38;;
61635;SDS011;59438;45.014;39.006;2023-02-21T08:46:29;2.70;;;1.15;;
61635;SDS011;59438;45.014;39.006;2023-02-21T08:48:59;4.78;;;1.50;;
61635;SDS011;59438;45.014;39.006;2023-02-21T08:51:25;3.20;;;1.77;;
61635;SDS011;59438;45.014;39.006;2023-02-21T08:53:53;1.67;;;1.20;;
61635;SDS011;59438;45.014;39.006;2023-02-21T08:56:20;4.78;;;2.00;;
61635;SDS011;59438;45.014;39.006;2023-02-21T08:58:47;1.98;;;1.38;;
61635;SDS011;59438;45.014;39.006;2023-02-21T09:01:14;3.13;;;1.80;;
61635;SDS011;59438;45.014;39.006;2023-02-21T09:03:41;2.83;;;1.60;;
61635;SDS011;59438;45.014;39.006;2023-02-21T09:06:09;2.97;;;1.63;;
61635;SDS011;59438;45.014;39.006;2023-02-21T09:08:35;3.08;;;1.60;;
61635;SDS011;59438;45.014;39.006;2023-02-21T09:11:01;2.58;;;1.50;;
61635;SDS011;59438;45.014;39.006;2023-02-21T09:13:28;6.07;;;1.63;;
61635;SDS011;59438;45.014;39.006;2023-02-21T09:15:55;5.20;;;1.83;;
61635;SDS011;59438;45.014;39.006;2023-02-21T09:18:22;1.77;;;1.20;;
61635;SDS011;59438;45.014;39.006;2023-02-21T09:20:48;3.25;;;1.20;;
61635;SDS011;59438;45.014;39.006;2023-02-21T09:23:16;1.85;;;1.20;;
61635;SDS011;59438;45.014;39.006;2023-02-21T09:25:42;2.60;;;1.60;;
61635;SDS011;59438;45.014;39.006;2023-02-21T09:28:09;2.65;;;1.65;;
61635;SDS011;59438;45.014;39.006;2023-02-21T09:30:35;3.13;;;1.65;;
61635;SDS011;59438;45.014;39.006;2023-02-21T09:33:02;1.52;;;1.40;;
61635;SDS011;59438;45.014;39.006;2023-02-21T09:35:28;3.00;;;1.65;;
61635;SDS011;59438;45.014;39.006;2023-02-21T09:37:55;2.67;;;2.08;;
61635;SDS011;59438;45.014;39.006;2023-02-21T09:40:26;1.65;;;1.13;;
61635;SDS011;59438;45.014;39.006;2023-02-21T09:43:00;3.78;;;1.83;;
61635;SDS011;59438;45.014;39.006;2023-02-21T09:45:29;2.42;;;1.70;;
61635;SDS011;59438;45.014;39.006;2023-02-21T09:47:58;2.20;;;1.60;;
61635;SDS011;59438;45.014;39.006;2023-02-21T09:50:28;2.85;;;1.48;;
61635;SDS011;59438;45.014;39.006;2023-02-21T09:52:59;2.25;;;1.33;;
61635;SDS011;59438;45.014;39.006;2023-02-21T09:55:29;2.17;;;0.90;;
61635;SDS011;59438;45.014;39.006;2023-02-21T09:57:59;1.40;;;1.10;;
61635;SDS011;59438;45.014;39.006;2023-02-21T10:00:28;1.42;;;0.82;;
61635;SDS011;59438;45.014;39.006;2023-02-21T10:03:01;1.30;;;1.00;;
61635;SDS011;59438;45.014;39.006;2023-02-21T10:05:38;0.93;;;0.82;;
61635;SDS011;59438;45.014;39.006;2023-02-21T10:08:13;1.83;;;0.90;;
61635;SDS011;59438;45.014;39.006;2023-02-21T10:10:48;1.85;;;1.00;;
61635;SDS011;59438;45.014;39.006;2023-02-21T10:13:22;1.20;;;1.00;;
61635;SDS011;59438;45.014;39.006;2023-02-21T10:16:01;0.88;;;0.88;;
61635;SDS011;59438;45.014;39.006;2023-02-21T10:18:34;1.10;;;0.98;;
61635;SDS011;59438;45.014;39.006;2023-02-21T10:21:11;1.20;;;0.88;;
61635;SDS011;59438;45.014;39.006;2023-02-21T10:23:42;1.55;;;1.00;;
61635;SDS011;59438;45.014;39.006;2023-02-21T10:26:17;2.88;;;1.30;;
61635;SDS011;59438;45.014;39.006;2023-02-21T10:28:48;4.30;;;1.70;;
61635;SDS011;59438;45.014;39.006;2023-02-21T10:31:17;3.55;;;1.30;;
61635;SDS011;59438;45.014;39.006;2023-02-21T10:36:16;1.20;;;1.10;;
61635;SDS011;59438;45.014;39.006;2023-02-21T10:38:45;1.38;;;1.20;;
61635;SDS011;59438;45.014;39.006;2023-02-21T10:41:21;1.67;;;0.90;;
61635;SDS011;59438;45.014;39.006;2023-02-21T10:43:49;3.78;;;1.70;;
61635;SDS011;59438;45.014;39.006;2023-02-21T10:48:50;2.53;;;1.60;;
61635;SDS011;59438;45.014;39.006;2023-02-21T10:51:27;4.57;;;1.30;;
61635;SDS011;59438;45.014;39.006;2023-02-21T10:53:56;2.03;;;1.30;;
61635;SDS011;59438;45.014;39.006;2023-02-21T10:56:45;4.07;;;1.45;;
61635;SDS011;59438;45.014;39.006;2023-02-21T10:59:18;1.98;;;1.45;;
61635;SDS011;59438;45.014;39.006;2023-02-21T11:01:47;3.85;;;1.50;;
61635;SDS011;59438;45.014;39.006;2023-02-21T11:04:28;3.85;;;2.00;;
61635;SDS011;59438;45.014;39.006;2023-02-21T11:09:27;3.05;;;1.73;;
61635;SDS011;59438;45.014;39.006;2023-02-21T11:12:01;5.68;;;2.40;;
61635;SDS011;59438;45.014;39.006;2023-02-21T11:14:30;3.22;;;1.70;;
61635;SDS011;59438;45.014;39.006;2023-02-21T11:17:10;3.90;;;1.60;;
61635;SDS011;59438;45.014;39.006;2023-02-21T11:19:46;5.50;;;2.20;;
61635;SDS011;59438;45.014;39.006;2023-02-21T11:22:14;3.72;;;1.83;;
61635;SDS011;59438;45.014;39.006;2023-02-21T11:24:44;1.67;;;1.20;;
61635;SDS011;59438;45.014;39.006;2023-02-21T11:27:27;2.17;;;1.60;;
61635;SDS011;59438;45.014;39.006;2023-02-21T11:29:56;11.05;;;1.30;;
61635;SDS011;59438;45.014;39.006;2023-02-21T11:32:25;2.67;;;1.45;;
61635;SDS011;59438;45.014;39.006;2023-02-21T11:35:06;2.35;;;1.20;;
61635;SDS011;59438;45.014;39.006;2023-02-21T11:37:48;3.38;;;1.58;;
61635;SDS011;59438;45.014;39.006;2023-02-21T11:40:21;5.30;;;2.60;;
61635;SDS011;59438;45.014;39.006;2023-02-21T11:43:15;10.52;;;4.00;;
61635;SDS011;59438;45.014;39.006;2023-02-21T11:45:48;7.38;;;2.50;;
61635;SDS011;59438;45.014;39.006;2023-02-21T11:48:31;3.95;;;1.70;;
61635;SDS011;59438;45.014;39.006;2023-02-21T11:51:03;2.55;;;1.50;;
61635;SDS011;59438;45.014;39.006;2023-02-21T11:53:34;1.97;;;1.37;;
61635;SDS011;59438;45.014;39.006;2023-02-21T11:56:07;12.75;;;3.78;;
61635;SDS011;59438;45.014;39.006;2023-02-21T11:58:44;6.13;;;1.42;;
61635;SDS011;59438;45.014;39.006;2023-02-21T12:01:20;2.90;;;1.38;;
61635;SDS011;59438;45.014;39.006;2023-02-21T12:03:59;1.42;;;1.10;;
61635;SDS011;59438;45.014;39.006;2023-02-21T12:06:37;1.60;;;1.02;;
61635;SDS011;59438;45.014;39.006;2023-02-21T12:09:10;2.47;;;1.10;;
61635;SDS011;59438;45.014;39.006;2023-02-21T12:11:49;5.20;;;0.98;;
61635;SDS011;59438;45.014;39.006;2023-02-21T12:17:24;2.92;;;1.40;;
61635;SDS011;59438;45.014;39.006;2023-02-21T12:20:19;3.22;;;0.90;;
61635;SDS011;59438;45.014;39.006;2023-02-21T12:22:57;3.58;;;1.10;;
61635;SDS011;59438;45.014;39.006;2023-02-21T12:25:33;1.50;;;1.20;;
61635;SDS011;59438;45.014;39.006;2023-02-21T12:28:08;4.97;;;1.23;;
61635;SDS011;59438;45.014;39.006;2023-02-21T12:30:51;4.63;;;1.50;;
61635;SDS011;59438;45.014;39.006;2023-02-21T12:33:32;2.83;;;1.40;;
61635;SDS011;59438;45.014;39.006;2023-02-21T12:39:19;1.70;;;1.00;;
61635;SDS011;59438;45.014;39.006;2023-02-21T12:41:59;2.70;;;1.20;;
61635;SDS011;59438;45.014;39.006;2023-02-21T12:44:49;1.67;;;1.13;;
61635;SDS011;59438;45.014;39.006;2023-02-21T12:47:27;2.38;;;1.40;;
61635;SDS011;59438;45.014;39.006;2023-02-21T12:50:00;2.15;;;0.98;;
61635;SDS011;59438;45.014;39.006;2023-02-21T12:55:00;2.00;;;1.50;;
61635;SDS011;59438;45.014;39.006;2023-02-21T12:57:30;1.95;;;1.20;;
61635;SDS011;59438;45.014;39.006;2023-02-21T13:00:03;2.17;;;1.15;;
61635;SDS011;59438;45.014;39.006;2023-02-21T13:02:41;4.47;;;1.80;;
61635;SDS011;59438;45.014;39.006;2023-02-21T13:05:15;4.40;;;1.50;;
61635;SDS011;59438;45.014;39.006;2023-02-21T13:07:45;3.00;;;1.80;;
61635;SDS011;59438;45.014;39.006;2023-02-21T13:10:18;4.03;;;1.90;;
61635;SDS011;59438;45.014;39.006;2023-02-21T13:12:48;4.82;;;1.83;;
61635;SDS011;59438;45.014;39.006;2023-02-21T13:15:24;3.35;;;1.65;;
61635;SDS011;59438;45.014;39.006;2023-02-21T13:17:57;5.68;;;2.28;;
61635;SDS011;59438;45.014;39.006;2023-02-21T13:20:26;5.13;;;1.83;;
61635;SDS011;59438;45.014;39.006;2023-02-21T13:26:04;2.28;;;1.50;;
61635;SDS011;59438;45.014;39.006;2023-02-21T13:28:40;2.10;;;1.40;;
61635;SDS011;59438;45.014;39.006;2023-02-21T13:31:16;3.78;;;1.52;;
61635;SDS011;59438;45.014;39.006;2023-02-21T13:33:49;2.72;;;1.50;;
61635;SDS011;59438;45.014;39.006;2023-02-21T13:36:19;3.97;;;1.85;;
61635;SDS011;59438;45.014;39.006;2023-02-21T13:38:55;5.15;;;1.67;;
61635;SDS011;59438;45.014;39.006;2023-02-21T13:41:25;2.55;;;1.52;;
61635;SDS011;59438;45.014;39.006;2023-02-21T13:43:54;2.05;;;1.50;;
61635;SDS011;59438;45.014;39.006;2023-02-21T13:46:22;3.03;;;2.00;;
61635;SDS011;59438;45.014;39.006;2023-02-21T13:51:51;2.78;;;1.90;;
61635;SDS011;59438;45.014;39.006;2023-02-21T13:54:20;4.07;;;2.05;;
61635;SDS011;59438;45.014;39.006;2023-02-21T13:56:49;5.18;;;2.10;;
61635;SDS011;59438;45.014;39.006;2023-02-21T13:59:30;5.72;;;2.03;;
61635;SDS011;59438;45.014;39.006;2023-02-21T14:04:59;2.83;;;1.73;;
61635;SDS011;59438;45.014;39.006;2023-02-21T14:13:18;3.10;;;1.80;;
61635;SDS011;59438;45.014;39.006;2023-02-21T14:15:48;3.17;;;1.88;;
61635;SDS011;59438;45.014;39.006;2023-02-21T14:18:21;6.13;;;1.98;;
61635;SDS011;59438;45.014;39.006;2023-02-21T14:20:53;5.25;;;2.00;;
61635;SDS011;59438;45.014;39.006;2023-02-21T14:23:23;4.45;;;2.33;;
61635;SDS011;59438;45.014;39.006;2023-02-21T14:25:59;4.82;;;2.15;;
61635;SDS011;59438;45.014;39.006;2023-02-21T14:34:19;6.95;;;2.40;;
61635;SDS011;59438;45.014;39.006;2023-02-21T14:36:49;5.38;;;2.00;;
61635;SDS011;59438;45.014;39.006;2023-02-21T14:39:19;4.00;;;2.00;;
61635;SDS011;59438;45.014;39.006;2023-02-21T14:41:54;4.35;;;2.40;;
61635;SDS011;59438;45.014;39.006;2023-02-21T14:44:34;5.78;;;2.50;;
61635;SDS011;59438;45.014;39.006;2023-02-21T14:50:10;5.80;;;2.45;;
61635;SDS011;59438;45.014;39.006;2023-02-21T14:53:04;6.78;;;2.65;;
61635;SDS011;59438;45.014;39.006;2023-02-21T14:58:56;6.63;;;3.50;;
61635;SDS011;59438;45.014;39.006;2023-02-21T15:01:44;6.93;;;2.83;;
61635;SDS011;59438;45.014;39.006;2023-02-21T15:04:25;4.28;;;2.58;;
61635;SDS011;59438;45.014;39.006;2023-02-21T15:07:00;7.50;;;2.95;;
61635;SDS011;59438;45.014;39.006;2023-02-21T15:09:36;5.47;;;2.65;;
61635;SDS011;59438;45.014;39.006;2023-02-21T15:12:06;6.82;;;2.92;;
61635;SDS011;59438;45.014;39.006;2023-02-21T15:17:12;11.82;;;3.70;;
61635;SDS011;59438;45.014;39.006;2023-02-21T15:19:43;15.13;;;3.75;;
61635;SDS011;59438;45.014;39.006;2023-02-21T15:22:14;11.90;;;4.05;;
61635;SDS011;59438;45.014;39.006;2023-02-21T15:27:39;14.90;;;3.85;;
61635;SDS011;59438;45.014;39.006;2023-02-21T15:30:19;13.35;;;4.10;;
61635;SDS011;59438;45.014;39.006;2023-02-21T15:32:51;8.13;;;3.65;;
61635;SDS011;59438;45.014;39.006;2023-02-21T15:35:21;10.73;;;4.00;;
61635;SDS011;59438;45.014;39.006;2023-02-21T15:37:51;10.07;;;3.75;;
61635;SDS011;59438;45.014;39.006;2023-02-21T15:40:19;11.68;;;3.85;;
61635;SDS011;59438;45.014;39.006;2023-02-21T15:42:50;14.32;;;4.03;;
61635;SDS011;59438;45.014;39.006;2023-02-21T15:45:20;11.18;;;3.90;;
61635;SDS011;59438;45.014;39.006;2023-02-21T15:50:17;10.32;;;5.05;;